Time;durP1;ratioP1;P1;durP2;ratioP2;P2;SDS_P1;SDS_P2;PMS_P1;PMS_P2;Temp;Humidity;BMP_temperature;BMP_pressure;BME280_temperature;BME280_humidity;BME280_pressure;Samples;Min_cycle;Max_cycle;Signal;HPM_P1;HPM_P2
2023/04/05 00:00:45;;;;;;;8.40;3.92;;;;;;;8.66;44.28;98944.69;5107886;28;20107;-51
2023/04/05 00:03:11;;;;;;;12.52;4.97;;;;;;;8.62;44.42;98937.41;5107791;28;20112;-50
2023/04/05 00:05:37;;;;;;;7.80;4.80;;;;;;;8.57;44.71;98932.69;5092302;28;20481;-50
2023/04/05 00:08:07;;;;;;;7.95;4.45;;;;;;;8.51;44.54;98931.63;5107742;28;20501;-51
2023/04/05 00:10:33;;;;;;;11.23;4.55;;;;;;;8.55;44.67;98932.06;5091950;28;20523;-50
2023/04/05 00:12:58;;;;;;;12.77;4.68;;;;;;;8.58;44.83;98932.53;5107706;28;20024;-51
2023/04/05 00:15:27;;;;;;;17.83;7.45;;;;;;;8.51;45.07;98931.63;5092002;28;20028;-50
2023/04/05 00:17:54;;;;;;;13.15;6.57;;;;;;;8.55;44.83;98937.28;5107728;28;20118;-51
2023/04/05 00:20:20;;;;;;;9.55;5.65;;;;;;;8.49;44.72;98933.63;5108869;28;20104;-50
2023/04/05 00:22:45;;;;;;;9.80;5.65;;;;;;;8.45;45.12;98934.97;5096664;28;20501;-50
2023/04/05 00:25:12;;;;;;;12.15;6.72;;;;;;;8.37;44.94;98933.22;5111746;28;20493;-50
2023/04/05 00:27:38;;;;;;;15.13;7.50;;;;;;;8.21;45.51;98938.63;5096045;28;20048;-50
2023/04/05 00:30:05;;;;;;;18.48;6.97;;;;;;;8.09;45.73;98933.00;5112024;28;20039;-50
2023/04/05 00:32:31;;;;;;;15.38;5.97;;;;;;;8.10;45.42;98934.63;5096026;28;20056;-51
2023/04/05 00:34:57;;;;;;;13.40;6.85;;;;;;;8.03;45.81;98931.13;5094650;28;20123;-50
2023/04/05 00:37:23;;;;;;;14.73;7.57;;;;;;;8.00;45.94;98934.06;5111616;28;20119;-50
2023/04/05 00:39:48;;;;;;;7.30;4.75;;;;;;;7.94;46.23;98938.19;5095840;28;20477;-51
2023/04/05 00:42:14;;;;;;;17.77;7.13;;;;;;;7.99;45.95;98933.25;5111512;28;20036;-50
2023/04/05 00:44:40;;;;;;;17.10;8.30;;;;;;;8.03;46.46;98932.91;5094515;28;20032;-50
2023/04/05 00:47:06;;;;;;;18.17;9.48;;;;;;;7.95;46.06;98931.19;5111616;28;20028;-50
2023/04/05 00:49:35;;;;;;;20.35;11.10;;;;;;;7.88;46.23;98930.25;5095684;28;20053;-51
2023/04/05 00:52:02;;;;;;;25.80;10.07;;;;;;;7.92;46.63;98927.09;5077534;28;20078;-50
2023/04/05 00:54:29;;;;;;;20.15;8.63;;;;;;;7.90;45.80;98923.06;5094264;28;20028;-50
2023/04/05 00:56:58;;;;;;;25.23;11.70;;;;;;;7.86;45.95;98921.78;5094243;28;20382;-50
2023/04/05 00:59:30;;;;;;;39.15;17.17;;;;;;;7.91;46.29;98922.09;5095542;28;20156;-50
2023/04/05 01:02:05;;;;;;;15.05;7.03;;;;;;;8.02;46.08;98915.59;5095810;28;20036;-51
2023/04/05 01:04:35;;;;;;;16.40;9.45;;;;;;;8.07;45.99;98923.72;5094818;28;20122;-51
2023/04/05 01:07:22;;;;;;;13.27;5.93;;;;;;;7.97;45.95;98913.53;5095677;28;20028;-50
2023/04/05 01:09:58;;;;;;;15.90;6.35;;;;;;;7.79;46.52;98914.66;5095260;28;20065;-50
2023/04/05 01:12:31;;;;;;;;;;;;;;;7.71;46.13;98913.91;5077509;28;20511;-50
2023/04/05 01:14:56;;;;;;;13.75;6.00;;;;;;;7.56;46.42;98921.69;5093959;28;19908;-50
2023/04/05 01:17:27;;;;;;;16.13;6.45;;;;;;;7.54;46.58;98923.66;5110839;28;20084;-50
2023/04/05 01:19:59;;;;;;;8.38;5.35;;;;;;;7.27;46.46;98925.81;5095227;28;20393;-50
2023/04/05 01:22:52;;;;;;;14.60;6.32;;;;;;;6.54;48.69;98937.41;5110730;28;20409;-50
2023/04/05 01:25:27;;;;;;;15.05;5.13;;;;;;;6.26;49.65;98934.38;5110627;28;20027;-50
2023/04/05 01:28:13;;;;;;;11.10;5.00;;;;;;;6.35;49.60;98936.81;5094719;28;20052;-50
2023/04/05 01:30:45;;;;;;;6.20;3.92;;;;;;;6.44;49.28;98931.56;5094729;28;20452;-50
2023/04/05 01:33:23;;;;;;;7.90;3.80;;;;;;;6.50;49.32;98926.50;5110598;28;20490;-50
2023/04/05 01:35:58;;;;;;;8.80;4.15;;;;;;;6.54;48.70;98926.97;5110524;28;20032;-50
2023/04/05 01:38:26;;;;;;;16.58;8.45;;;;;;;6.46;49.05;98920.00;5110515;28;20031;-50
2023/04/05 01:40:53;;;;;;;14.82;8.13;;;;;;;6.24;49.81;98921.53;5110412;28;20031;-50
2023/04/05 01:43:19;;;;;;;10.63;4.90;;;;;;;6.04;50.17;98931.50;5094591;28;20481;-50
2023/04/05 01:45:47;;;;;;;8.27;4.75;;;;;;;5.91;50.58;98931.94;5094860;28;20040;-50
2023/04/05 01:48:13;;;;;;;10.57;4.85;;;;;;;5.94;51.08;98930.84;5110244;28;20489;-50
2023/04/05 01:50:39;;;;;;;16.30;5.82;;;;;;;6.05;50.60;98930.50;5110188;28;20024;-50
2023/04/05 01:53:08;;;;;;;10.18;5.07;;;;;;;6.18;51.19;98935.22;5094375;28;20047;-50
2023/04/05 01:55:34;;;;;;;9.65;5.93;;;;;;;6.38;51.17;98933.06;5110222;28;20032;-50
2023/04/05 01:57:59;;;;;;;9.00;4.90;;;;;;;6.46;50.65;98935.66;5094657;28;20089;-50
2023/04/05 02:00:26;;;;;;;8.20;4.82;;;;;;;6.48;50.69;98933.69;5092970;28;20096;-50
2023/04/05 02:02:52;;;;;;;14.38;4.93;;;;;;;6.54;50.22;98925.19;5109967;28;20024;-50
2023/04/05 02:05:18;;;;;;;10.00;5.00;;;;;;;6.57;49.77;98926.66;5110025;28;20085;-50
2023/04/05 02:07:43;;;;;;;8.43;4.78;;;;;;;6.58;49.53;98923.88;5109996;28;20036;-50
2023/04/05 02:10:09;;;;;;;5.32;3.58;;;;;;;6.43;49.19;98930.75;5109725;28;20482;-50
2023/04/05 02:12:35;;;;;;;9.35;5.70;;;;;;;6.37;49.57;98928.81;5109763;28;20386;-50
2023/04/05 02:15:01;;;;;;;8.25;5.70;;;;;;;6.39;49.51;98932.06;5109713;28;20032;-50
2023/04/05 02:17:32;;;;;;;7.93;5.72;;;;;;;6.36;50.19;98930.63;5094033;28;20036;-50
2023/04/05 02:20:09;;;;;;;10.63;6.03;;;;;;;6.44;50.62;98928.97;5109724;28;20051;-50
2023/04/05 02:22:38;;;;;;;9.10;4.95;;;;;;;6.51;49.29;98927.31;5094107;28;20493;-50
2023/04/05 02:25:08;;;;;;;10.85;5.00;;;;;;;6.40;50.06;98931.91;5109479;28;20032;-50
2023/04/05 02:27:36;;;;;;;12.35;9.23;;;;;;;6.06;49.67;98929.53;5093578;28;20476;-50
2023/04/05 02:30:03;;;;;;;10.10;4.88;;;;;;;5.86;50.48;98928.25;5109329;28;20084;-50
2023/04/05 02:32:30;;;;;;;9.27;5.00;;;;;;;5.93;50.78;98926.59;5092532;28;20027;-50
2023/04/05 02:34:57;;;;;;;10.70;5.75;;;;;;;5.91;50.27;98931.94;5093615;28;20374;-50
2023/04/05 02:37:24;;;;;;;7.82;5.10;;;;;;;5.76;50.90;98944.81;5092324;28;20334;-50
2023/04/05 02:39:50;;;;;;;10.93;5.10;;;;;;;5.34;51.67;98937.97;5109337;28;20757;-50
2023/04/05 02:42:16;;;;;;;7.93;4.50;;;;;;;4.93;52.62;98939.63;5092949;28;20024;-50
2023/04/05 02:44:42;;;;;;;10.90;5.05;;;;;;;4.69;53.13;98941.19;5093026;28;20449;-50
2023/04/05 02:47:07;;;;;;;5.40;3.97;;;;;;;4.55;53.82;98934.78;5093412;28;20027;-50
2023/04/05 02:49:33;;;;;;;12.80;4.70;;;;;;;4.33;54.82;98935.34;5093262;28;20090;-50
2023/04/05 02:51:59;;;;;;;7.65;5.20;;;;;;;4.20;54.79;98933.97;5093277;28;20106;-50
2023/04/05 02:54:25;;;;;;;9.38;5.28;;;;;;;4.12;55.86;98926.09;5093233;28;20042;-50
2023/04/05 02:56:53;;;;;;;9.65;5.25;;;;;;;4.01;55.36;98931.56;5093170;28;20032;-50
2023/04/05 02:59:19;;;;;;;8.30;6.03;;;;;;;3.92;56.26;98942.84;5093347;28;20444;-50
2023/04/05 03:01:45;;;;;;;13.05;6.05;;;;;;;3.96;56.39;98942.41;5108859;28;20036;-50
2023/04/05 03:04:11;;;;;;;9.38;5.35;;;;;;;3.97;56.26;98932.84;5093040;28;20024;-51
2023/04/05 03:06:37;;;;;;;9.93;5.45;;;;;;;3.90;56.55;98940.38;5092996;28;20455;-50
2023/04/05 03:09:03;;;;;;;9.77;5.32;;;;;;;3.93;56.71;98947.91;5092878;28;20086;-50
2023/04/05 03:11:30;;;;;;;8.27;4.95;;;;;;;4.07;57.06;98951.72;5108611;28;20028;-50
2023/04/05 03:13:56;;;;;;;11.18;5.78;;;;;;;4.14;56.29;98957.13;5108559;28;20097;-50
2023/04/05 03:16:22;;;;;;;13.95;5.07;;;;;;;4.24;56.54;98955.22;5108482;28;20122;-50
2023/04/05 03:18:50;;;;;;;8.85;4.45;;;;;;;4.52;56.83;98955.88;5092872;28;20191;-50
2023/04/05 03:21:17;;;;;;;10.43;5.13;;;;;;;4.80;55.71;98964.28;5092990;28;20027;-50
2023/04/05 03:23:45;;;;;;;10.63;4.90;;;;;;;4.73;55.25;98954.69;5092729;28;20028;-50
2023/04/05 03:26:12;;;;;;;8.23;5.47;;;;;;;4.47;55.66;98957.34;5092398;28;20063;-50
2023/04/05 03:28:44;;;;;;;10.07;5.45;;;;;;;4.22;55.73;98961.56;5092504;28;20081;-50
2023/04/05 03:31:10;;;;;;;9.00;5.72;;;;;;;4.16;56.68;98962.97;5092524;28;20051;-50
2023/04/05 03:33:37;;;;;;;15.75;5.57;;;;;;;4.20;56.38;98959.94;5092516;28;20056;-50
2023/04/05 03:36:04;;;;;;;9.85;4.97;;;;;;;4.08;56.82;98957.72;5092467;28;20028;-50
2023/04/05 03:38:31;;;;;;;12.63;5.57;;;;;;;3.89;57.52;98958.75;5108147;28;20032;-50
2023/04/05 03:40:57;;;;;;;9.18;4.75;;;;;;;3.89;57.58;98954.34;5107964;28;20077;-50
2023/04/05 03:43:23;;;;;;;10.10;4.40;;;;;;;4.02;58.18;98953.13;5108108;28;20030;-50
2023/04/05 03:45:49;;;;;;;11.57;4.60;;;;;;;4.12;57.88;98956.47;5108005;28;20068;-49
2023/04/05 03:48:18;;;;;;;7.15;4.57;;;;;;;4.26;57.21;98949.88;5107909;28;20054;-51
2023/04/05 03:50:45;;;;;;;9.70;4.78;;;;;;;4.46;56.86;98956.50;5092171;28;20081;-50
2023/04/05 03:53:11;;;;;;;7.65;4.88;;;;;;;4.62;56.50;98944.56;5107932;28;20032;-50
2023/04/05 03:55:37;;;;;;;6.53;4.20;;;;;;;4.53;56.36;98941.94;5092344;28;20032;-50
2023/04/05 03:58:02;;;;;;;10.82;5.03;;;;;;;4.43;56.34;98935.19;5090964;28;20558;-51
2023/04/05 04:00:31;;;;;;;11.45;4.90;;;;;;;4.36;56.28;98935.00;5107866;28;20051;-50
2023/04/05 04:02:57;;;;;;;11.05;6.30;;;;;;;4.09;56.43;98936.81;5092128;28;20471;-50
2023/04/05 04:05:22;;;;;;;8.95;5.47;;;;;;;4.02;57.39;98934.97;5107735;28;20028;-50
2023/04/05 04:07:48;;;;;;;8.90;5.00;;;;;;;4.08;57.60;98936.94;5107864;28;20549;-50
2023/04/05 04:10:18;;;;;;;11.30;5.90;;;;;;;4.09;57.32;98930.81;5091947;28;20401;-50
2023/04/05 04:12:44;;;;;;;11.05;5.43;;;;;;;4.00;57.83;98937.69;5092088;28;20073;-50
2023/04/05 04:15:11;;;;;;;7.68;4.55;;;;;;;3.89;57.82;98940.56;5090676;28;20451;-50
2023/04/05 04:17:37;;;;;;;11.88;5.50;;;;;;;3.76;58.11;98935.75;5090659;28;20489;-50
2023/04/05 04:20:10;;;;;;;15.43;5.90;;;;;;;3.49;58.43;98937.47;5090623;28;20115;-50
2023/04/05 04:22:37;;;;;;;19.42;5.63;;;;;;;3.50;58.76;98939.13;5090663;28;20471;-50
2023/04/05 04:25:10;;;;;;;8.82;5.78;;;;;;;3.53;58.98;98943.19;5091820;28;20397;-50
2023/04/05 04:27:39;;;;;;;15.18;5.18;;;;;;;3.73;58.97;98946.44;5090307;28;20089;-50
2023/04/05 04:30:10;;;;;;;12.15;6.05;;;;;;;4.05;58.68;98950.25;5107280;28;20199;-50
2023/04/05 04:32:53;;;;;;;9.15;4.32;;;;;;;4.19;57.64;98954.91;5107473;28;20028;-50
2023/04/05 04:35:27;;;;;;;10.35;4.32;;;;;;;4.43;57.53;98961.19;5091833;28;20141;-50
2023/04/05 04:37:58;;;;;;;6.32;4.55;;;;;;;4.69;57.34;98955.97;5092059;28;20020;-50
2023/04/05 04:40:28;;;;;;;12.25;4.65;;;;;;;4.84;56.48;98958.78;5107343;28;20028;-50
2023/04/05 04:42:57;;;;;;;6.05;3.85;;;;;;;4.96;56.24;98967.94;5107361;28;20024;-50
2023/04/05 04:45:23;;;;;;;6.25;4.45;;;;;;;5.13;55.96;98971.41;5107320;28;20024;-50
2023/04/05 04:47:52;;;;;;;10.15;4.75;;;;;;;5.30;56.05;98973.09;5073604;28;20020;-50
2023/04/05 04:50:19;;;;;;;9.60;4.90;;;;;;;5.41;55.44;98974.56;5107176;28;20574;-50
2023/04/05 04:52:45;;;;;;;15.73;4.90;;;;;;;5.63;55.58;98975.72;5091615;28;20020;-50
2023/04/05 04:55:15;;;;;;;6.20;4.72;;;;;;;5.84;54.73;98972.66;5091617;28;20028;-50
2023/04/05 04:57:41;;;;;;;10.43;5.57;;;;;;;5.96;54.41;98970.59;5091626;28;20027;-50
2023/04/05 05:00:12;;;;;;;15.10;5.32;;;;;;;6.04;53.79;98967.97;5090261;28;20416;-50
2023/04/05 05:02:38;;;;;;;10.82;5.28;;;;;;;6.08;54.24;98974.47;5091561;28;20451;-50
2023/04/05 05:05:05;;;;;;;8.57;5.38;;;;;;;5.94;53.61;98967.31;5107076;28;20028;-50
2023/04/05 05:07:31;;;;;;;12.55;6.20;;;;;;;5.91;53.64;98970.22;5094648;28;20020;-50
2023/04/05 05:09:57;;;;;;;13.10;5.90;;;;;;;5.85;53.93;98971.69;5095338;28;20032;-50
2023/04/05 05:12:23;;;;;;;11.32;5.70;;;;;;;5.81;53.15;98972.97;5110896;28;20085;-50
2023/04/05 05:14:49;;;;;;;10.52;5.00;;;;;;;5.86;53.22;98970.72;5110909;28;20024;-50
2023/04/05 05:17:14;;;;;;;14.68;5.80;;;;;;;5.93;52.71;98973.47;5110869;28;20028;-50
2023/04/05 05:19:40;;;;;;;28.15;15.38;;;;;;;5.98;52.56;98981.66;5110781;28;20028;-50
2023/04/05 05:22:06;;;;;;;20.73;6.25;;;;;;;6.05;53.12;98974.00;5095188;28;20537;-50
2023/04/05 05:24:31;;;;;;;9.70;5.43;;;;;;;6.04;52.37;98974.97;5110744;28;20493;-50
2023/04/05 05:26:57;;;;;;;8.88;4.63;;;;;;;6.05;52.06;98977.41;5110495;28;20521;-50
2023/04/05 05:29:23;;;;;;;7.82;5.00;;;;;;;6.22;52.33;98985.19;5094913;28;20481;-50
2023/04/05 05:31:49;;;;;;;11.93;5.63;;;;;;;6.94;51.44;98991.25;5094898;28;20058;-50
2023/04/05 05:34:16;;;;;;;7.55;4.57;;;;;;;7.98;49.36;98986.50;5094849;28;20051;-50
2023/04/05 05:36:42;;;;;;;13.07;5.35;;;;;;;8.33;47.67;98983.41;5110547;28;20149;-50
2023/04/05 05:39:07;;;;;;;9.90;5.30;;;;;;;8.64;47.00;98990.34;5094670;28;20054;-50
2023/04/05 05:41:33;;;;;;;14.07;5.03;;;;;;;9.50;45.26;98986.16;5110742;28;20047;-50
2023/04/05 05:43:59;;;;;;;9.18;5.35;;;;;;;10.33;43.55;98978.63;5110671;28;20033;-50
2023/04/05 05:46:25;;;;;;;11.00;5.10;;;;;;;11.04;42.38;98984.69;5110451;28;20089;-50
2023/04/05 05:48:51;;;;;;;11.88;4.90;;;;;;;11.66;40.55;98983.66;5110101;28;20024;-50
2023/04/05 05:51:17;;;;;;;9.50;5.18;;;;;;;11.92;39.38;98990.00;5094399;28;20028;-50
2023/04/05 05:53:44;;;;;;;10.50;4.70;;;;;;;12.07;38.86;98989.78;5110091;28;20030;-51
2023/04/05 05:56:10;;;;;;;10.25;4.95;;;;;;;12.46;38.77;98996.84;5093029;28;20020;-51
2023/04/05 05:58:36;;;;;;;16.80;5.22;;;;;;;13.09;37.77;98998.09;5094332;28;20049;-51
2023/04/05 06:01:02;;;;;;;9.48;4.90;;;;;;;13.66;36.48;99006.16;5110010;28;20024;-50
2023/04/05 06:03:29;;;;;;;13.77;5.68;;;;;;;14.11;35.53;99001.59;5109861;28;20489;-51
2023/04/05 06:05:56;;;;;;;10.85;4.50;;;;;;;14.40;34.55;98999.31;5109834;28;20036;-51
2023/04/05 06:08:22;;;;;;;13.43;5.47;;;;;;;14.50;33.84;98996.19;5094186;28;20035;-51
2023/04/05 06:10:48;;;;;;;11.73;5.30;;;;;;;14.30;33.83;98989.25;5109694;28;20024;-50
2023/04/05 06:13:14;;;;;;;13.05;5.15;;;;;;;14.29;33.87;98989.47;5109672;28;20024;-51
2023/04/05 06:15:42;;;;;;;15.32;5.22;;;;;;;14.35;33.47;98997.34;5109990;28;20444;-51
2023/04/05 06:18:08;;;;;;;14.30;5.72;;;;;;;14.28;33.58;98995.78;5108328;28;20020;-51
2023/04/05 06:20:39;;;;;;;10.68;4.20;;;;;;;13.96;33.64;98994.00;5109604;28;20024;-51
2023/04/05 06:23:05;;;;;;;9.02;4.93;;;;;;;13.66;34.58;98998.25;5109616;28;20028;-51
2023/04/05 06:25:31;;;;;;;12.35;4.32;;;;;;;13.62;34.87;99003.13;5093760;28;20024;-51
2023/04/05 06:27:56;;;;;;;16.35;5.03;;;;;;;13.61;35.42;99001.53;5109344;28;20052;-50
2023/04/05 06:30:22;;;;;;;11.55;5.35;;;;;;;13.85;34.33;99007.88;5093508;28;20028;-51
2023/04/05 06:32:53;;;;;;;12.55;5.07;;;;;;;13.73;34.53;99007.75;5093625;28;20106;-51
2023/04/05 06:35:19;;;;;;;8.52;4.90;;;;;;;13.85;33.50;99013.16;5093660;28;20562;-51
2023/04/05 06:37:45;;;;;;;8.55;3.78;;;;;;;14.14;32.66;99016.97;5093546;28;20073;-51
2023/04/05 06:40:11;;;;;;;9.88;4.60;;;;;;;14.16;32.10;99008.84;5109162;28;20397;-50
2023/04/05 06:42:36;;;;;;;10.23;5.25;;;;;;;14.16;32.26;99009.66;5109071;28;20101;-51
2023/04/05 06:45:03;;;;;;;10.23;4.53;;;;;;;14.57;32.08;99010.16;5109084;28;20024;-51
2023/04/05 06:47:32;;;;;;;7.45;5.05;;;;;;;14.80;31.97;99003.44;5093382;28;20515;-49
2023/04/05 06:49:57;;;;;;;9.85;5.45;;;;;;;14.90;31.86;99004.53;5109192;28;20026;-49
2023/04/05 06:52:23;;;;;;;15.48;5.55;;;;;;;15.09;31.67;99005.34;5108976;28;20024;-49
2023/04/05 06:54:49;;;;;;;13.18;4.68;;;;;;;16.21;30.32;99005.84;5093296;28;20020;-48
2023/04/05 06:57:15;;;;;;;11.02;5.50;;;;;;;16.88;29.43;99006.31;5108787;28;20039;-49
2023/04/05 06:59:40;;;;;;;22.00;5.15;;;;;;;17.57;29.02;99005.50;5108904;28;20028;-49
2023/04/05 07:02:06;;;;;;;14.63;5.30;;;;;;;18.23;28.01;98981.94;5093140;28;20048;-49
2023/04/05 07:04:35;;;;;;;15.43;6.93;;;;;;;17.49;27.71;98988.13;5093063;28;20024;-49
2023/04/05 07:07:02;;;;;;;10.82;5.60;;;;;;;15.40;29.61;98989.50;5108904;28;20431;-49
2023/04/05 07:09:31;;;;;;;11.63;5.50;;;;;;;13.88;32.25;98996.88;5108535;28;20028;-49
2023/04/05 07:11:58;;;;;;;15.73;5.45;;;;;;;14.68;32.37;98987.50;5093160;28;20094;-49
2023/04/05 07:14:23;;;;;;;15.40;5.43;;;;;;;15.37;30.83;98982.81;5092908;28;20020;-49
2023/04/05 07:16:54;;;;;;;10.70;4.53;;;;;;;15.99;30.75;98974.59;5091555;28;20381;-49
2023/04/05 07:19:19;;;;;;;17.58;4.82;;;;;;;16.65;29.54;98987.75;5092720;28;20020;-49
2023/04/05 07:21:45;;;;;;;14.00;4.75;;;;;;;17.56;29.17;98987.97;5108397;28;20081;-49
2023/04/05 07:24:11;;;;;;;15.27;5.00;;;;;;;18.61;27.79;98987.50;5108356;28;20024;-49
2023/04/05 07:26:36;;;;;;;8.65;4.78;;;;;;;19.29;26.23;98994.22;5108092;28;20101;-49
2023/04/05 07:29:06;;;;;;;12.00;4.95;;;;;;;18.44;27.17;98995.53;5107800;28;20062;-48
2023/04/05 07:31:32;;;;;;;14.98;5.15;;;;;;;19.11;26.14;98995.34;5092525;28;20390;-49
2023/04/05 07:34:01;;;;;;;7.20;4.53;;;;;;;19.41;25.92;99003.91;5092491;28;20031;-46
2023/04/05 07:36:29;;;;;;;10.68;4.00;;;;;;;19.09;25.66;99007.28;5108092;28;20092;-47
2023/04/05 07:38:56;;;;;;;16.95;5.32;;;;;;;19.08;25.70;99000.38;5108017;28;20024;-46
2023/04/05 07:41:23;;;;;;;18.05;4.88;;;;;;;18.70;26.17;99013.41;5091152;28;20161;-46
2023/04/05 07:43:49;;;;;;;11.32;5.03;;;;;;;17.63;27.00;99015.19;5091186;28;20098;-46
2023/04/05 07:46:15;;;;;;;15.18;5.25;;;;;;;17.46;27.57;99015.13;5108288;28;20036;-46
2023/04/05 07:48:40;;;;;;;17.08;4.72;;;;;;;17.03;28.14;99013.75;5107824;28;20113;-46
2023/04/05 07:51:07;;;;;;;8.43;4.80;;;;;;;15.98;28.97;99015.38;5092216;28;20028;-49
2023/04/05 07:53:34;;;;;;;7.70;4.85;;;;;;;14.68;30.90;99014.72;5108225;28;20046;-49
2023/04/05 07:56:07;;;;;;;16.27;5.10;;;;;;;14.49;31.21;99013.88;5108051;28;20028;-49
2023/04/05 07:58:33;;;;;;;11.55;4.38;;;;;;;15.44;30.84;99020.56;5090883;28;20516;-49
2023/04/05 08:01:03;;;;;;;8.70;4.68;;;;;;;16.62;29.82;99017.34;5108021;28;20027;-49
2023/04/05 08:03:30;;;;;;;10.15;4.30;;;;;;;17.86;28.29;99011.59;5092105;28;20020;-49
2023/04/05 08:05:56;;;;;;;12.00;4.78;;;;;;;19.47;26.57;99005.59;5091961;28;20031;-47
2023/04/05 08:08:23;;;;;;;20.30;5.43;;;;;;;20.54;25.59;99000.34;5107680;28;20019;-47
2023/04/05 08:10:49;;;;;;;7.55;4.50;;;;;;;20.74;24.60;99002.34;5091918;28;20051;-47
2023/04/05 08:13:15;;;;;;;34.50;6.40;;;;;;;19.50;25.51;99013.09;5107556;28;20051;-46
2023/04/05 08:15:41;;;;;;;13.45;5.22;;;;;;;19.00;26.37;99008.78;5107540;28;20028;-47
2023/04/05 08:18:06;;;;;;;9.90;5.00;;;;;;;18.22;26.79;99012.19;5092125;28;20028;-46
2023/04/05 08:20:37;;;;;;;8.20;4.53;;;;;;;17.85;27.22;99015.31;5107453;28;20028;-46
2023/04/05 08:23:04;;;;;;;18.75;4.90;;;;;;;17.19;27.90;99014.88;5091947;28;20069;-46
2023/04/05 08:25:30;;;;;;;10.25;4.90;;;;;;;16.78;28.95;99022.78;5090599;28;20501;-47
2023/04/05 08:27:56;;;;;;;13.77;5.32;;;;;;;17.96;28.96;99027.72;5107231;28;20517;-47
2023/04/05 08:30:22;;;;;;;7.72;4.47;;;;;;;20.20;26.31;99013.19;5107429;28;20016;-46
2023/04/05 08:32:48;;;;;;;15.70;4.20;;;;;;;21.15;24.88;99010.56;5107463;28;20523;-47
2023/04/05 08:35:14;;;;;;;5.70;4.30;;;;;;;20.97;24.65;99011.81;5091686;28;20024;-47
2023/04/05 08:37:40;;;;;;;11.57;4.88;;;;;;;21.05;23.96;99010.50;5090440;28;20024;-47
2023/04/05 08:40:07;;;;;;;13.38;4.93;;;;;;;20.70;24.44;99011.94;5107350;28;20020;-47
2023/04/05 08:42:43;;;;;;;15.73;4.82;;;;;;;20.90;24.02;99020.03;5110718;28;20145;-46
2023/04/05 08:45:13;;;;;;;12.20;5.30;;;;;;;20.35;24.36;99016.75;5094576;28;20023;-47
2023/04/05 08:47:40;;;;;;;8.40;4.35;;;;;;;20.60;24.62;99009.22;5111427;28;20020;-47
2023/04/05 08:50:09;;;;;;;10.48;4.63;;;;;;;21.49;23.27;99010.13;5111228;28;20443;-46
2023/04/05 08:52:37;;;;;;;8.18;4.05;;;;;;;22.23;22.52;99008.84;5095653;28;20016;-46
2023/04/05 08:55:05;;;;;;;9.90;4.45;;;;;;;22.96;21.96;99006.81;5111253;28;20481;-46
2023/04/05 08:57:31;;;;;;;13.10;5.20;;;;;;;23.82;21.13;99002.09;5095838;28;20069;-47
2023/04/05 09:00:00;;;;;;;13.18;4.13;;;;;;;24.49;20.22;99000.44;5094315;28;20485;-47
2023/04/05 09:02:26;;;;;;;10.98;4.55;;;;;;;24.80;19.88;99010.88;5095734;28;20138;-47
2023/04/05 09:04:52;;;;;;;9.65;4.25;;;;;;;23.63;20.75;99002.75;5111079;28;20055;-47
2023/04/05 09:07:20;;;;;;;10.23;4.75;;;;;;;23.70;20.51;99002.44;5095291;28;20028;-47
2023/04/05 09:09:52;;;;;;;14.88;9.85;;;;;;;23.48;20.80;99005.50;5110894;28;20120;-47
2023/04/05 09:12:23;;;;;;;9.00;4.53;;;;;;;23.89;20.54;99000.72;5094147;28;20446;-47
2023/04/05 09:14:50;;;;;;;10.15;5.10;;;;;;;23.63;20.83;99007.31;5095193;28;20028;-47
2023/04/05 09:17:20;;;;;;;7.15;4.70;;;;;;;23.67;21.20;99005.69;5110859;28;20089;-47
2023/04/05 09:19:49;;;;;;;10.07;4.82;;;;;;;24.22;21.14;99009.00;5095043;28;20481;-46
2023/04/05 09:22:17;;;;;;;7.85;4.53;;;;;;;24.25;20.60;98999.63;5110757;28;20031;-46
2023/04/05 09:24:45;;;;;;;11.27;4.75;;;;;;;24.33;20.68;98990.94;5095039;28;20103;-46
2023/04/05 09:27:16;;;;;;;11.27;4.28;;;;;;;24.88;19.54;98988.75;5110397;28;20395;-47
2023/04/05 09:29:45;;;;;;;9.52;4.00;;;;;;;25.61;18.98;98983.25;5110500;28;20054;-47
2023/04/05 09:32:12;;;;;;;22.90;6.22;;;;;;;25.99;18.07;98984.00;5077039;28;20085;-47
2023/04/05 09:34:39;;;;;;;9.52;4.50;;;;;;;26.31;18.37;98987.75;5110480;28;20571;-47
2023/04/05 09:37:20;;;;;;;5.82;4.18;;;;;;;26.67;17.36;98982.53;5094768;28;20093;-46
2023/04/05 09:39:49;;;;;;;7.93;3.97;;;;;;;26.98;17.18;98989.19;5094986;28;20153;-47
2023/04/05 09:42:18;;;;;;;10.43;4.22;;;;;;;27.17;16.64;98970.22;5110375;28;20036;-46
2023/04/05 09:45:03;;;;;;;16.67;4.40;;;;;;;27.39;17.09;98974.88;5110245;28;20053;-46
2023/04/05 09:47:31;;;;;;;8.63;4.68;;;;;;;27.76;16.68;98970.22;5094840;28;20035;-47
2023/04/05 09:49:58;;;;;;;11.45;4.50;;;;;;;28.20;16.65;98979.41;5110029;28;20115;-47
2023/04/05 09:52:26;;;;;;;13.88;4.53;;;;;;;28.27;15.92;98974.34;5094074;28;20028;-47
2023/04/05 09:54:56;;;;;;;13.48;5.05;;;;;;;27.57;16.50;98962.28;5094618;28;20028;-47
2023/04/05 09:57:26;;;;;;;10.63;4.80;;;;;;;27.50;16.52;98962.72;5094310;28;20024;-47
2023/04/05 09:59:52;;;;;;;9.30;4.18;;;;;;;27.77;16.07;98956.44;5110020;28;20063;-47
2023/04/05 10:02:18;;;;;;;8.80;4.70;;;;;;;28.05;15.90;98953.59;5094204;28;20035;-47
2023/04/05 10:04:45;;;;;;;14.00;4.55;;;;;;;28.34;15.70;98953.09;5094270;28;20035;-47
2023/04/05 10:07:13;;;;;;;11.23;4.10;;;;;;;28.53;15.59;98949.38;5092797;28;20031;-47
2023/04/05 10:09:44;;;;;;;8.23;4.63;;;;;;;28.80;15.13;98951.06;5092696;28;20028;-47
2023/04/05 10:12:17;;;;;;;11.48;4.38;;;;;;;28.69;14.48;98958.63;5076169;28;20520;-47
2023/04/05 10:14:42;;;;;;;13.82;4.15;;;;;;;28.49;14.57;98954.56;5109794;28;20024;-47
2023/04/05 10:17:15;;;;;;;6.85;4.30;;;;;;;28.23;14.69;98959.88;5109688;28;20035;-47
2023/04/05 10:20:03;;;;;;;14.50;4.30;;;;;;;27.70;14.71;98956.84;5109692;28;20018;-47
2023/04/05 10:22:35;;;;;;;11.57;5.10;;;;;;;27.77;14.59;98952.91;5109558;28;20114;-47
2023/04/05 10:25:11;;;;;;;8.18;4.43;;;;;;;27.76;14.31;98951.34;5093843;28;20032;-46
2023/04/05 10:27:51;;;;;;;6.97;4.13;;;;;;;27.46;14.45;98957.16;5093585;28;20056;-47
2023/04/05 10:30:17;;;;;;;10.13;5.10;;;;;;;27.22;14.30;98929.66;5109329;28;20035;-46
2023/04/05 10:32:58;;;;;;;11.90;4.38;;;;;;;26.44;14.73;98962.75;5109268;28;20020;-47
2023/04/05 10:35:33;;;;;;;12.55;4.85;;;;;;;26.48;15.56;98957.56;5093636;28;20103;-46
2023/04/05 10:38:15;;;;;;;11.75;4.72;;;;;;;26.31;14.74;98958.16;5109227;28;20459;-46
2023/04/05 10:40:45;;;;;;;7.68;3.53;;;;;;;26.24;14.65;98957.72;5092393;28;20031;-46
2023/04/05 10:43:18;;;;;;;10.35;4.70;;;;;;;25.79;15.10;98958.22;5093549;28;20016;-46
2023/04/05 10:45:46;;;;;;;7.05;4.40;;;;;;;25.47;14.91;98962.50;5075312;28;20024;-46
2023/04/05 10:48:30;;;;;;;8.80;4.18;;;;;;;25.38;15.52;98956.16;5093618;28;20028;-46
2023/04/05 10:50:57;;;;;;;11.57;4.53;;;;;;;24.81;15.47;98958.78;5108929;28;20035;-46
2023/04/05 10:53:24;;;;;;;6.20;4.07;;;;;;;24.81;15.44;98953.41;5092005;28;20031;-46
2023/04/05 10:55:52;;;;;;;8.13;4.07;;;;;;;24.64;15.87;98959.25;5091947;28;20020;-46
2023/04/05 10:58:19;;;;;;;4.95;3.90;;;;;;;24.76;16.09;98952.69;5092024;28;20020;-46
2023/04/05 11:00:46;;;;;;;9.93;4.25;;;;;;;25.14;15.73;98945.47;5108734;28;20020;-46
2023/04/05 11:03:41;;;;;;;11.77;4.63;;;;;;;25.41;15.73;98957.47;5092804;28;20441;-46
2023/04/05 11:06:18;;;;;;;6.60;3.85;;;;;;;25.62;15.48;98953.38;5108756;28;20028;-46
2023/04/05 11:08:46;;;;;;;6.35;4.20;;;;;;;25.55;15.20;98952.94;5093180;28;20020;-46
2023/04/05 11:11:17;;;;;;;11.57;4.90;;;;;;;25.40;15.51;98951.31;5091607;28;20016;-47
2023/04/05 11:13:57;;;;;;;10.63;3.97;;;;;;;25.63;15.57;98949.59;5091687;28;20028;-47
2023/04/05 11:16:38;;;;;;;9.02;4.18;;;;;;;25.76;15.31;98937.31;5108584;28;20038;-46
2023/04/05 11:19:05;;;;;;;9.23;3.90;;;;;;;26.09;15.64;98942.69;5092886;28;20016;-46
2023/04/05 11:21:30;;;;;;;8.30;4.47;;;;;;;26.04;14.73;98946.25;5092963;28;20074;-46
2023/04/05 11:24:16;;;;;;;17.92;4.93;;;;;;;25.67;15.32;98942.53;5092642;28;20024;-45
2023/04/05 11:26:42;;;;;;;16.20;4.45;;;;;;;25.50;15.07;98943.06;5075446;28;20421;-46
2023/04/05 11:29:08;;;;;;;15.85;4.45;;;;;;;25.29;15.23;98947.16;5092577;28;20024;-46
2023/04/05 11:31:34;;;;;;;8.40;4.25;;;;;;;25.36;15.14;98928.78;5091337;28;20020;-46
2023/04/05 11:34:09;;;;;;;8.98;4.05;;;;;;;25.73;15.14;98934.41;5108208;28;20116;-46
2023/04/05 11:36:35;;;;;;;11.85;4.10;;;;;;;25.81;15.13;98936.41;5108166;28;20055;-48